Time;durP1;ratioP1;P1;durP2;ratioP2;P2;SDS_P1;SDS_P2;PMS_P1;PMS_P2;Temp;Humidity;BMP_temperature;BMP_pressure;BME280_temperature;BME280_humidity;BME280_pressure;Samples;Min_cycle;Max_cycle;Signal;HPM_P1;HPM_P2
2021/03/18 00:01:37;;;;;;;15.93;8.40;;;;;;;5.34;92.22;101971.75;4920040;29;20040;-75
2021/03/18 00:04:04;;;;;;;13.45;8.48;;;;;;;5.27;92.23;101965.97;4932125;29;20408;-75
2021/03/18 00:06:30;;;;;;;15.32;8.75;;;;;;;5.21;92.82;101961.78;4930329;29;20114;-74
2021/03/18 00:08:55;;;;;;;13.95;8.15;;;;;;;5.19;93.28;101971.13;4934083;28;20171;-75
2021/03/18 00:11:22;;;;;;;16.05;8.80;;;;;;;5.32;92.89;101968.56;4932133;28;20493;-75
2021/03/18 00:13:47;;;;;;;16.42;8.18;;;;;;;5.36;91.93;101964.25;4930512;29;20048;-75
2021/03/18 00:16:13;;;;;;;16.98;8.98;;;;;;;5.49;91.61;101968.91;4938231;29;20260;-74
2021/03/18 00:18:52;;;;;;;13.45;8.15;;;;;;;5.34;92.50;101961.06;4922022;29;20038;-76
2021/03/18 00:21:18;;;;;;;15.60;8.73;;;;;;;5.35;92.01;101965.34;4931036;29;20031;-74
2021/03/18 00:23:44;;;;;;;18.52;8.43;;;;;;;5.44;92.47;101971.63;4934893;29;20040;-74
2021/03/18 00:26:10;;;;;;;15.77;8.60;;;;;;;5.32;92.38;101963.22;4932012;29;20024;-75
2021/03/18 00:28:36;;;;;;;16.30;9.48;;;;;;;5.49;92.34;101960.06;4932812;29;20043;-75
2021/03/18 00:31:03;;;;;;;17.60;8.73;;;;;;;5.50;92.11;101954.44;4943051;28;20099;-74
2021/03/18 00:33:28;;;;;;;17.17;9.15;;;;;;;5.31;92.09;101958.97;4931906;29;20048;-74
2021/03/18 00:35:56;;;;;;;19.13;9.45;;;;;;;5.23;93.45;101958.81;4937244;29;20099;-74
2021/03/18 00:38:23;;;;;;;16.33;8.43;;;;;;;5.22;94.44;101955.38;4933538;29;20082;-74
2021/03/18 00:40:55;;;;;;;14.90;9.02;;;;;;;5.39;93.35;101955.66;4921921;29;20079;-74
2021/03/18 00:43:22;;;;;;;13.98;9.00;;;;;;;5.21;93.26;101956.44;4931344;29;20036;-75
2021/03/18 00:45:48;;;;;;;21.27;9.60;;;;;;;5.30;93.66;101941.34;4927582;29;20082;-74
2021/03/18 00:48:17;;;;;;;18.85;10.10;;;;;;;5.35;93.89;101951.19;4951680;29;20431;-74
2021/03/18 00:50:52;;;;;;;18.80;10.40;;;;;;;5.52;92.37;101938.13;4950251;29;20139;-74
2021/03/18 00:53:34;;;;;;;17.25;10.18;;;;;;;5.36;93.36;101931.41;4943954;29;20032;-74
2021/03/18 00:56:01;;;;;;;21.88;10.35;;;;;;;5.25;93.69;101927.28;4934409;29;20043;-74
2021/03/18 00:58:28;;;;;;;18.90;10.43;;;;;;;5.32;94.02;101920.50;4964596;28;20043;-74
2021/03/18 01:00:56;;;;;;;16.98;10.30;;;;;;;5.34;94.03;101928.25;4940863;28;20151;-74
2021/03/18 01:03:25;;;;;;;15.15;9.30;;;;;;;5.37;93.15;101912.44;4946188;29;20031;-74
2021/03/18 01:06:04;;;;;;;15.77;9.85;;;;;;;5.18;93.89;101908.97;4951707;28;20596;-75
2021/03/18 01:08:30;;;;;;;18.73;10.43;;;;;;;5.04;95.53;101897.38;4939125;29;20051;-76
2021/03/18 01:11:17;;;;;;;15.65;9.55;;;;;;;5.04;95.64;101897.38;4934384;29;20039;-74
2021/03/18 01:13:45;;;;;;;16.80;10.02;;;;;;;5.00;96.18;101899.03;4931675;29;20044;-74
2021/03/18 01:16:17;;;;;;;19.95;10.25;;;;;;;5.35;94.56;101903.13;4935992;29;20476;-74
2021/03/18 01:18:47;;;;;;;18.00;10.63;;;;;;;5.27;93.79;101895.75;4936744;29;20035;-74
2021/03/18 01:21:13;;;;;;;17.52;9.75;;;;;;;5.01;95.04;101900.66;4928784;29;20131;-74
2021/03/18 01:23:39;;;;;;;18.83;10.43;;;;;;;4.91;95.31;101902.63;4942722;28;20028;-74
2021/03/18 01:26:06;;;;;;;18.08;10.60;;;;;;;4.81;95.79;101900.88;4934694;29;20540;-74
2021/03/18 01:28:32;;;;;;;19.63;10.40;;;;;;;4.80;95.73;101899.28;4935544;29;20515;-74
2021/03/18 01:30:59;;;;;;;17.73;10.40;;;;;;;4.59;96.75;101893.38;4932687;29;20046;-74
2021/03/18 01:33:25;;;;;;;16.20;9.32;;;;;;;4.46;97.37;101904.75;4942663;29;20045;-74
2021/03/18 01:35:51;;;;;;;16.40;9.82;;;;;;;4.58;96.58;101899.00;4934360;29;20039;-74
2021/03/18 01:38:16;;;;;;;15.77;9.35;;;;;;;4.79;95.42;101902.25;4935355;29;20031;-74
2021/03/18 01:40:42;;;;;;;15.43;9.20;;;;;;;4.37;96.70;101894.97;4934542;29;20042;-74
2021/03/18 01:43:08;;;;;;;20.75;10.10;;;;;;;4.32;97.61;101900.34;4945447;29;20043;-74
2021/03/18 01:45:34;;;;;;;18.38;9.95;;;;;;;4.20;98.03;101899.94;4933914;29;20392;-74
2021/03/18 01:48:00;;;;;;;19.90;9.77;;;;;;;4.20;98.70;101899.94;4934735;29;20031;-74
2021/03/18 01:50:27;;;;;;;18.85;10.65;;;;;;;4.43;98.13;101894.63;4935087;29;20389;-74
2021/03/18 01:52:55;;;;;;;18.80;10.60;;;;;;;4.41;97.14;101896.00;4941398;28;20036;-74
2021/03/18 01:55:27;;;;;;;18.90;10.70;;;;;;;4.24;97.82;101898.31;4949393;29;20031;-74
2021/03/18 01:57:52;;;;;;;17.92;10.82;;;;;;;4.05;98.87;101890.19;4932519;29;20493;-74
2021/03/18 02:00:19;;;;;;;17.55;9.65;;;;;;;4.12;99.66;101884.56;4939542;29;20028;-74
2021/03/18 02:02:45;;;;;;;16.88;10.18;;;;;;;4.02;99.99;101887.31;4939388;29;20078;-74
2021/03/18 02:05:11;;;;;;;20.33;10.50;;;;;;;4.04;99.88;101883.31;4938383;29;20488;-74
2021/03/18 02:07:36;;;;;;;17.10;9.57;;;;;;;3.99;99.91;101874.56;4934984;29;20066;-74
2021/03/18 02:10:03;;;;;;;18.33;10.00;;;;;;;3.86;100.00;101868.00;4927113;29;20063;-74
2021/03/18 02:12:29;;;;;;;17.48;10.25;;;;;;;3.85;100.00;101870.94;4944774;29;20049;-74
2021/03/18 02:14:54;;;;;;;17.63;9.88;;;;;;;3.92;100.00;101869.53;4936608;28;20028;-74
2021/03/18 02:17:28;;;;;;;17.92;9.60;;;;;;;3.84;100.00;101864.00;4934829;29;20034;-74
2021/03/18 02:19:54;;;;;;;21.42;9.77;;;;;;;3.72;100.00;101864.38;4939101;29;20036;-74
2021/03/18 02:22:44;;;;;;;15.52;9.38;;;;;;;3.68;100.00;101869.47;4933234;29;20043;-74
2021/03/18 02:25:15;;;;;;;15.88;9.35;;;;;;;3.71;100.00;101864.66;4932171;29;20031;-74
2021/03/18 02:27:54;;;;;;;;;;;;;;;3.65;100.00;101867.38;4932867;29;20032;-74
2021/03/18 02:30:44;;;;;;;17.67;8.82;;;;;;;3.60;100.00;101862.06;4953020;28;19940;-74
2021/03/18 02:33:43;;;;;;;17.10;9.13;;;;;;;3.63;100.00;101866.84;4933615;29;20035;-74
2021/03/18 02:36:14;;;;;;;17.70;9.95;;;;;;;3.55;100.00;101858.66;4933441;29;20040;-74
2021/03/18 02:38:43;;;;;;;15.20;8.63;;;;;;;3.54;100.00;101860.50;4933498;29;20035;-74
2021/03/18 02:41:21;;;;;;;17.17;9.07;;;;;;;3.53;100.00;101858.13;4928124;29;20095;-74
2021/03/18 02:43:55;;;;;;;17.13;9.55;;;;;;;3.63;100.00;101848.22;4929849;29;20020;-74
2021/03/18 02:46:22;;;;;;;19.80;9.93;;;;;;;3.64;100.00;101852.47;4949055;29;20051;-74
2021/03/18 02:48:48;;;;;;;17.45;9.23;;;;;;;3.55;100.00;101843.47;4931715;29;20023;-74
2021/03/18 02:51:18;;;;;;;16.23;10.18;;;;;;;3.48;100.00;101848.31;4950095;28;20485;-74
2021/03/18 02:53:45;;;;;;;17.35;9.88;;;;;;;3.46;100.00;101850.47;4938496;28;20027;-74
2021/03/18 02:56:15;;;;;;;17.67;10.15;;;;;;;3.51;100.00;101841.66;4933110;29;20040;-74
2021/03/18 02:58:42;;;;;;;17.85;10.50;;;;;;;3.40;100.00;101843.59;4933640;29;20489;-74
2021/03/18 03:01:08;;;;;;;18.73;9.75;;;;;;;3.36;100.00;101837.25;4939033;29;20484;-74
2021/03/18 03:03:35;;;;;;;20.13;10.93;;;;;;;3.39;100.00;101834.00;4933544;29;20039;-74
2021/03/18 03:06:06;;;;;;;20.17;10.73;;;;;;;3.47;100.00;101833.41;4931034;29;20047;-74
2021/03/18 03:08:33;;;;;;;19.98;11.70;;;;;;;3.47;100.00;101830.75;4934369;28;20048;-74
2021/03/18 03:11:01;;;;;;;20.85;11.65;;;;;;;3.75;100.00;101842.53;4929190;29;20972;-74
2021/03/18 03:13:34;;;;;;;23.08;11.40;;;;;;;3.78;100.00;101841.94;4953329;28;20046;-74
2021/03/18 03:16:02;;;;;;;21.08;11.43;;;;;;;3.81;100.00;101840.63;4937689;28;20046;-75
2021/03/18 03:18:28;;;;;;;22.00;12.15;;;;;;;3.80;100.00;101845.13;4933344;29;20031;-74
2021/03/18 03:20:55;;;;;;;23.67;12.65;;;;;;;3.73;100.00;101833.22;4933717;29;20102;-74
2021/03/18 03:23:24;;;;;;;20.58;12.00;;;;;;;3.90;100.00;101830.94;4943295;28;20040;-74
2021/03/18 03:25:51;;;;;;;20.35;11.63;;;;;;;3.93;100.00;101843.72;4934101;29;20094;-75
2021/03/18 03:28:20;;;;;;;21.20;12.27;;;;;;;3.84;100.00;101834.72;4931634;29;20023;-74
2021/03/18 03:30:46;;;;;;;27.67;13.90;;;;;;;4.03;100.00;101827.59;4932122;29;20484;-74
2021/03/18 03:33:11;;;;;;;27.77;13.90;;;;;;;4.25;99.37;101836.72;4933880;29;20047;-74
2021/03/18 03:35:38;;;;;;;29.25;15.88;;;;;;;4.33;98.88;101837.97;4932848;29;20044;-74
2021/03/18 03:38:06;;;;;;;30.42;15.13;;;;;;;4.33;99.47;101836.09;4935029;29;20036;-74
2021/03/18 03:40:33;;;;;;;32.08;16.48;;;;;;;4.38;99.73;101844.03;4935359;29;20126;-74
2021/03/18 03:42:58;;;;;;;35.50;16.73;;;;;;;4.45;99.76;101835.69;4932468;29;20070;-74
2021/03/18 03:45:24;;;;;;;34.10;16.70;;;;;;;4.52;99.51;101844.94;4931034;29;20106;-75
2021/03/18 03:47:51;;;;;;;39.85;17.42;;;;;;;4.45;100.00;101847.13;4939543;29;20494;-74
2021/03/18 03:50:20;;;;;;;40.42;17.55;;;;;;;4.47;100.00;101852.22;4933836;28;20028;-74
2021/03/18 03:52:59;;;;;;;41.40;17.27;;;;;;;4.45;100.00;101841.81;4931092;29;20083;-74
2021/03/18 03:55:33;;;;;;;35.78;17.05;;;;;;;4.49;100.00;101847.38;4941460;29;20035;-74
2021/03/18 03:58:06;;;;;;;39.00;17.65;;;;;;;4.47;100.00;101838.88;4934570;29;20040;-74
2021/03/18 04:00:34;;;;;;;44.20;18.60;;;;;;;4.50;100.00;101846.28;4932465;29;20497;-74
2021/03/18 04:03:03;;;;;;;45.25;18.98;;;;;;;4.54;100.00;101844.66;4926257;29;20055;-74
2021/03/18 04:05:29;;;;;;;38.90;17.25;;;;;;;4.54;99.95;101842.00;4942282;29;20047;-75
2021/03/18 04:08:00;;;;;;;40.85;18.17;;;;;;;4.54;100.00;101839.31;4929398;29;20039;-75
2021/03/18 04:10:27;;;;;;;43.92;18.55;;;;;;;4.44;100.00;101831.44;4913928;29;20032;-74
2021/03/18 04:12:56;;;;;;;40.25;18.30;;;;;;;4.42;100.00;101833.59;4939075;29;20031;-74
2021/03/18 04:15:22;;;;;;;36.22;16.33;;;;;;;4.37;100.00;101831.00;4933242;29;20485;-74
2021/03/18 04:17:51;;;;;;;36.05;16.60;;;;;;;4.37;100.00;101826.47;4932882;29;20034;-74
2021/03/18 04:20:19;;;;;;;35.65;15.93;;;;;;;4.34;100.00;101835.00;4933053;29;20093;-75
2021/03/18 04:22:49;;;;;;;34.75;15.73;;;;;;;4.38;100.00;101827.22;4936402;29;20104;-74
2021/03/18 04:25:16;;;;;;;35.65;14.73;;;;;;;4.38;100.00;101833.38;4918133;29;20027;-74
2021/03/18 04:27:43;;;;;;;34.13;14.30;;;;;;;4.34;100.00;101823.53;4935087;28;20110;-74
2021/03/18 04:30:11;;;;;;;30.63;13.88;;;;;;;4.31;100.00;101829.44;4940160;29;20031;-74
2021/03/18 04:32:39;;;;;;;29.92;13.32;;;;;;;4.19;100.00;101837.84;4937070;28;20070;-74
2021/03/18 04:35:06;;;;;;;34.33;14.10;;;;;;;4.33;100.00;101832.63;4936258;29;20063;-75
2021/03/18 04:37:34;;;;;;;34.80;15.40;;;;;;;4.30;100.00;101828.66;4932674;29;20123;-74
2021/03/18 04:40:00;;;;;;;32.55;15.32;;;;;;;4.25;100.00;101820.72;4942514;28;20028;-74
2021/03/18 04:42:26;;;;;;;31.95;15.30;;;;;;;4.16;100.00;101827.72;4929601;29;20405;-74
2021/03/18 04:44:52;;;;;;;33.13;15.57;;;;;;;4.16;100.00;101833.06;4930219;29;20040;-76
2021/03/18 04:47:20;;;;;;;32.25;14.65;;;;;;;4.23;100.00;101836.19;4929661;29;20031;-74
2021/03/18 04:49:47;;;;;;;31.08;13.52;;;;;;;4.16;100.00;101830.38;4929512;29;20966;-75
2021/03/18 04:52:14;;;;;;;29.50;13.48;;;;;;;4.18;100.00;101830.13;4933156;29;20040;-74
2021/03/18 04:54:40;;;;;;;32.15;14.88;;;;;;;4.16;100.00;101833.06;4927058;29;20400;-75
2021/03/18 04:57:06;;;;;;;30.58;14.63;;;;;;;4.15;100.00;101828.81;4932294;29;20102;-74
2021/03/18 04:59:32;;;;;;;30.90;14.07;;;;;;;4.13;100.00;101824.84;4946242;28;20420;-75
2021/03/18 05:01:59;;;;;;;30.48;13.48;;;;;;;4.16;100.00;101826.97;4951264;29;20039;-73
2021/03/18 05:04:25;;;;;;;25.67;11.93;;;;;;;4.11;100.00;101822.47;4937853;29;20385;-74
2021/03/18 05:06:53;;;;;;;24.42;11.45;;;;;;;4.09;100.00;101829.94;4931870;28;20043;-74
2021/03/18 05:09:23;;;;;;;25.70;11.82;;;;;;;4.08;99.71;101824.91;4935253;29;20031;-74
2021/03/18 05:11:48;;;;;;;26.20;12.52;;;;;;;4.12;99.56;101820.59;4936237;29;20043;-74
2021/03/18 05:14:34;;;;;;;25.90;12.48;;;;;;;3.98;100.00;101820.47;4934273;29;20039;-74
2021/03/18 05:17:00;;;;;;;27.17;12.18;;;;;;;4.11;99.56;101824.31;4876531;29;20044;-74
2021/03/18 05:19:26;;;;;;;25.10;11.80;;;;;;;4.03;99.01;101816.94;4874831;29;20073;-74
2021/03/18 05:21:52;;;;;;;25.35;11.50;;;;;;;3.93;100.00;101815.16;4877124;29;20045;-74
2021/03/18 05:24:18;;;;;;;26.60;11.93;;;;;;;3.85;99.94;101810.47;4877270;29;20033;-74
2021/03/18 05:26:44;;;;;;;25.00;11.60;;;;;;;3.96;100.00;101806.63;4875428;29;20041;-73
2021/03/18 05:29:12;;;;;;;25.77;12.10;;;;;;;3.86;100.00;101809.38;4875412;29;20139;-74
2021/03/18 05:31:37;;;;;;;28.30;11.93;;;;;;;3.68;100.00;101802.91;4875147;29;20041;-74
2021/03/18 05:34:03;;;;;;;25.52;11.90;;;;;;;3.80;100.00;101807.03;4872485;29;20057;-74
2021/03/18 05:36:29;;;;;;;28.63;12.57;;;;;;;3.76;100.00;101800.69;4872605;29;20120;-74
2021/03/18 05:38:55;;;;;;;26.60;13.05;;;;;;;3.75;100.00;101799.91;4873623;29;20131;-75
2021/03/18 05:41:21;;;;;;;31.00;12.63;;;;;;;3.82;100.00;101803.03;4875788;29;20049;-74
2021/03/18 05:43:47;;;;;;;25.20;12.05;;;;;;;3.84;100.00;101792.91;4879334;29;20041;-76
2021/03/18 05:46:15;;;;;;;30.10;12.30;;;;;;;3.95;100.00;101796.25;4875944;29;20036;-73
2021/03/18 05:48:46;;;;;;;27.63;12.35;;;;;;;4.01;99.75;101789.78;4876810;29;20116;-74
2021/03/18 05:51:17;;;;;;;29.60;12.35;;;;;;;3.82;100.00;101795.03;4865674;29;20079;-75
2021/03/18 05:53:45;;;;;;;26.10;12.15;;;;;;;3.76;100.00;101795.34;4893714;29;20062;-74
2021/03/18 05:56:17;;;;;;;31.73;12.43;;;;;;;3.82;100.00;101792.38;4935072;29;20040;-74
2021/03/18 05:58:47;;;;;;;;;;;;;;;3.88;100.00;101793.13;4933353;29;20087;-74
2021/03/18 06:01:14;;;;;;;27.42;11.57;;;;;;;3.97;100.00;101786.13;4932820;29;19959;-74
2021/03/18 06:03:39;;;;;;;29.55;12.68;;;;;;;4.02;100.00;101794.84;4932555;29;20040;-74
2021/03/18 06:06:06;;;;;;;31.48;13.05;;;;;;;3.95;100.00;101796.25;4934443;29;20484;-74
2021/03/18 06:08:40;;;;;;;32.58;12.40;;;;;;;3.84;100.00;101797.41;4932640;29;20032;-74
2021/03/18 06:11:07;;;;;;;26.27;11.32;;;;;;;3.80;100.00;101791.06;4931711;29;20058;-74
2021/03/18 06:13:33;;;;;;;25.33;11.55;;;;;;;3.95;100.00;101801.59;4945627;28;20035;-75
2021/03/18 06:16:00;;;;;;;23.95;11.25;;;;;;;4.02;100.00;101797.50;4939263;29;20087;-74
2021/03/18 06:18:27;;;;;;;27.50;11.50;;;;;;;4.17;100.00;101785.88;4949986;29;20047;-74
2021/03/18 06:20:54;;;;;;;26.80;11.07;;;;;;;4.26;100.00;101794.84;4934797;28;20396;-74
2021/03/18 06:23:22;;;;;;;29.02;11.77;;;;;;;4.25;100.00;101788.72;4932444;29;20547;-74
2021/03/18 06:25:48;;;;;;;28.05;11.98;;;;;;;4.26;100.00;101787.63;4934540;29;20111;-75
2021/03/18 06:28:23;;;;;;;27.63;11.80;;;;;;;4.25;100.00;101782.59;4932558;29;20035;-75
2021/03/18 06:31:13;;;;;;;26.42;11.95;;;;;;;4.07;100.00;101791.31;4963172;23;20046;-78
2021/03/18 06:33:51;;;;;;;30.42;11.95;;;;;;;4.08;100.00;101787.59;4992565;28;20485;-78
2021/03/18 06:36:19;;;;;;;42.47;16.38;;;;;;;4.05;100.00;101794.28;4976875;28;20049;-78
2021/03/18 06:38:59;;;;;;;47.63;16.42;;;;;;;4.09;100.00;101787.31;4998174;28;20463;-78
2021/03/18 06:41:36;;;;;;;45.88;17.10;;;;;;;4.24;100.00;101783.69;5001543;28;20470;-78
2021/03/18 06:44:04;;;;;;;43.28;17.30;;;;;;;4.15;100.00;101780.84;4989517;28;20040;-78
2021/03/18 06:46:29;;;;;;;47.47;16.88;;;;;;;3.95;100.00;101790.94;4997462;28;20038;-78
2021/03/18 06:48:55;;;;;;;48.17;17.10;;;;;;;4.05;100.00;101778.28;4995541;28;20030;-78
2021/03/18 06:51:27;;;;;;;46.25;16.85;;;;;;;4.23;100.00;101776.75;4980370;28;20402;-78
2021/03/18 06:53:54;;;;;;;50.00;16.83;;;;;;;4.31;100.00;101779.59;5009884;28;20034;-78
2021/03/18 06:56:29;;;;;;;50.72;17.63;;;;;;;4.25;100.00;101777.28;5011489;28;20053;-78
2021/03/18 06:58:55;;;;;;;47.45;16.48;;;;;;;4.43;100.00;101779.97;4992652;28;20035;-78
2021/03/18 07:01:30;;;;;;;45.38;16.25;;;;;;;4.47;100.00;101780.22;4991002;28;20022;-77
2021/03/18 07:04:05;;;;;;;57.03;18.35;;;;;;;4.44;100.00;101778.91;4990842;28;20390;-78
2021/03/18 07:06:35;;;;;;;52.80;16.92;;;;;;;4.34;100.00;101786.22;4988582;28;20506;-78
2021/03/18 07:09:09;;;;;;;48.35;14.40;;;;;;;4.21;100.00;101777.06;4999755;28;20030;-78
2021/03/18 07:11:40;;;;;;;43.58;15.98;;;;;;;4.25;100.00;101778.06;4986503;28;20635;-78
2021/03/18 07:14:06;;;;;;;48.83;15.18;;;;;;;4.34;100.00;101773.69;4988254;28;20038;-78
2021/03/18 07:16:46;;;;;;;47.42;14.18;;;;;;;4.20;100.00;101774.69;5009574;28;20128;-78
2021/03/18 07:19:22;;;;;;;46.40;15.00;;;;;;;4.34;100.00;101771.03;4986661;28;20045;-78
2021/03/18 07:21:49;;;;;;;45.45;14.45;;;;;;;4.46;100.00;101775.94;4987308;28;20092;-78
2021/03/18 07:24:32;;;;;;;48.45;14.50;;;;;;;4.41;100.00;101776.03;4989479;28;20033;-78
2021/03/18 07:27:13;;;;;;;50.17;14.95;;;;;;;4.40;100.00;101780.56;4996018;28;20038;-78
2021/03/18 07:29:41;;;;;;;52.57;16.60;;;;;;;4.36;100.00;101774.19;4994244;28;21263;-78
2021/03/18 07:32:07;;;;;;;50.83;15.38;;;;;;;4.42;100.00;101777.59;5008922;28;20762;-78
2021/03/18 07:34:33;;;;;;;45.55;14.93;;;;;;;4.54;100.00;101785.97;4987912;28;20034;-78
2021/03/18 07:37:01;;;;;;;43.67;14.55;;;;;;;4.42;100.00;101777.59;4984345;28;20041;-78
2021/03/18 07:39:26;;;;;;;40.83;14.88;;;;;;;4.57;100.00;101775.53;4989999;28;20045;-78
2021/03/18 07:41:53;;;;;;;32.33;12.60;;;;;;;4.70;100.00;101776.72;4989111;28;20034;-78
2021/03/18 07:44:20;;;;;;;31.90;11.48;;;;;;;4.77;100.00;101784.34;4991831;28;20046;-78
2021/03/18 07:46:50;;;;;;;30.58;12.00;;;;;;;4.82;100.00;101782.41;4991080;28;20084;-78
2021/03/18 07:49:23;;;;;;;27.95;10.82;;;;;;;4.83;100.00;101781.31;4985830;28;20561;-78
2021/03/18 07:51:53;;;;;;;26.42;11.20;;;;;;;4.80;100.00;101778.44;4987695;28;20054;-78
2021/03/18 07:54:20;;;;;;;30.27;10.55;;;;;;;4.81;100.00;101780.03;4992874;28;20042;-78
2021/03/18 07:56:54;;;;;;;25.20;11.27;;;;;;;4.91;100.00;101780.69;4991489;28;21012;-78
2021/03/18 07:59:32;;;;;;;24.40;10.48;;;;;;;5.09;100.00;101779.09;4990602;28;20034;-78
2021/03/18 08:02:14;;;;;;;23.63;10.05;;;;;;;5.09;100.00;101777.19;4989301;28;20117;-78
2021/03/18 08:04:46;;;;;;;28.05;10.15;;;;;;;5.14;100.00;101781.69;4991230;28;20085;-78
2021/03/18 08:07:31;;;;;;;27.35;10.15;;;;;;;5.20;100.00;101778.66;4992002;28;20042;-78
2021/03/18 08:09:57;;;;;;;26.10;10.35;;;;;;;5.09;100.00;101763.06;5000983;28;20085;-78
2021/03/18 08:12:53;;;;;;;27.77;10.25;;;;;;;5.17;100.00;101765.06;4996100;28;20050;-78
2021/03/18 08:15:24;;;;;;;26.60;10.75;;;;;;;5.22;100.00;101762.34;4991043;28;20085;-78
2021/03/18 08:17:55;;;;;;;26.75;10.13;;;;;;;5.18;100.00;101762.13;4988743;28;20042;-78
2021/03/18 08:20:42;;;;;;;25.67;11.02;;;;;;;5.15;100.00;101757.34;5007654;28;20038;-78
2021/03/18 08:23:26;;;;;;;24.10;11.13;;;;;;;5.22;100.00;101760.47;4987293;28;20034;-79
2021/03/18 08:25:54;;;;;;;27.73;11.50;;;;;;;5.18;100.00;101754.13;4995399;28;20449;-79
2021/03/18 08:28:43;;;;;;;29.80;11.60;;;;;;;5.32;100.00;101762.94;4993911;28;20032;-78
2021/03/18 08:31:18;;;;;;;27.67;11.75;;;;;;;5.49;100.00;101757.88;4994941;28;20034;-78
2021/03/18 08:33:51;;;;;;;31.00;11.32;;;;;;;5.37;100.00;101752.19;4992762;28;20394;-78
2021/03/18 08:36:39;;;;;;;32.47;12.10;;;;;;;5.39;100.00;101755.38;4994759;28;20045;-78
2021/03/18 08:39:13;;;;;;;29.65;12.02;;;;;;;5.39;100.00;101747.38;4992459;28;20041;-78
2021/03/18 08:41:41;;;;;;;27.25;11.70;;;;;;;5.37;100.00;101746.84;5008240;28;20570;-78
2021/03/18 08:44:12;;;;;;;32.50;12.40;;;;;;;5.43;100.00;101747.56;5003457;28;20037;-78
2021/03/18 08:46:50;;;;;;;34.03;12.82;;;;;;;5.50;100.00;101750.63;4987642;28;20038;-78
2021/03/18 08:49:29;;;;;;;32.60;11.95;;;;;;;5.53;100.00;101743.94;4991165;28;20526;-78
2021/03/18 08:52:00;;;;;;;29.40;12.70;;;;;;;5.53;100.00;101748.16;4992205;28;20161;-78
2021/03/18 08:54:41;;;;;;;32.92;12.98;;;;;;;5.58;100.00;101749.97;4988999;28;20034;-78
2021/03/18 08:57:09;;;;;;;32.20;13.77;;;;;;;5.69;100.00;101745.25;4992440;28;20034;-78
2021/03/18 08:59:44;;;;;;;33.55;13.32;;;;;;;5.73;100.00;101752.38;4995590;28;20113;-78
2021/03/18 09:02:13;;;;;;;31.25;12.77;;;;;;;5.59;100.00;101742.75;4984655;28;20030;-78
2021/03/18 09:04:41;;;;;;;33.00;13.57;;;;;;;5.64;100.00;101745.31;4989145;28;20046;-78
2021/03/18 09:07:11;;;;;;;39.25;13.90;;;;;;;5.55;100.00;101758.59;4991959;28;20510;-78
2021/03/18 09:09:37;;;;;;;43.28;15.65;;;;;;;5.59;100.00;101756.13;4990924;28;20089;-78
2021/03/18 09:12:04;;;;;;;38.58;15.18;;;;;;;5.59;100.00;101761.44;4993720;28;20031;-78
2021/03/18 09:14:30;;;;;;;38.42;14.75;;;;;;;5.41;100.00;101757.75;4990098;28;20048;-79
2021/03/18 09:17:13;;;;;;;38.97;14.82;;;;;;;5.28;100.00;101763.84;4991856;28;20034;-78
2021/03/18 09:19:47;;;;;;;41.53;15.35;;;;;;;5.36;100.00;101758.59;4987797;28;20027;-78
2021/03/18 09:22:24;;;;;;;45.50;16.27;;;;;;;5.44;100.00;101765.97;5001540;28;20073;-77
2021/03/18 09:24:54;;;;;;;47.83;17.33;;;;;;;5.64;100.00;101756.81;4989404;28;20407;-78
2021/03/18 09:27:19;;;;;;;49.83;18.30;;;;;;;5.53;100.00;101765.28;4984595;28;20048;-78
2021/03/18 09:29:46;;;;;;;54.95;18.58;;;;;;;5.62;100.00;101758.19;4991644;28;20026;-78
2021/03/18 09:32:12;;;;;;;50.33;18.77;;;;;;;5.77;100.00;101757.94;4989400;28;20519;-78
2021/03/18 09:34:41;;;;;;;50.40;17.40;;;;;;;5.65;100.00;101757.59;4992765;28;20136;-78
2021/03/18 09:37:07;;;;;;;37.88;15.35;;;;;;;5.84;100.00;101761.03;4988103;28;20046;-78
2021/03/18 09:39:33;;;;;;;49.47;17.85;;;;;;;6.06;100.00;101761.13;4986078;28;20030;-78
2021/03/18 09:42:02;;;;;;;37.20;13.38;;;;;;;6.09;100.00;101748.00;4988367;28;20093;-79
2021/03/18 09:44:29;;;;;;;28.33;10.63;;;;;;;6.04;100.00;101752.66;5000437;28;20383;-79
2021/03/18 09:47:06;;;;;;;23.50;9.88;;;;;;;6.24;100.00;101752.22;4988938;28;20113;-78
2021/03/18 09:49:37;;;;;;;21.67;8.63;;;;;;;6.35;100.00;101745.56;4991918;28;20085;-78
2021/03/18 09:52:06;;;;;;;18.75;8.68;;;;;;;6.49;98.58;101738.31;4972481;28;20092;-78
2021/03/18 09:54:32;;;;;;;17.17;8.52;;;;;;;6.55;97.97;101742.47;5008247;28;20033;-78
2021/03/18 09:57:03;;;;;;;16.02;7.57;;;;;;;6.54;96.77;101724.06;4985773;28;20243;-78
2021/03/18 09:59:38;;;;;;;14.93;7.68;;;;;;;6.66;95.50;101735.81;5002238;28;20045;-80
2021/03/18 10:02:07;;;;;;;15.75;7.95;;;;;;;6.81;94.14;101730.13;4989576;28;20475;-79
2021/03/18 10:04:40;;;;;;;18.80;7.82;;;;;;;6.89;93.61;101731.28;4988602;28;20033;-78
2021/03/18 10:07:07;;;;;;;19.17;8.93;;;;;;;7.19;92.85;101723.34;4991990;28;20038;-77
2021/03/18 10:09:36;;;;;;;17.33;8.27;;;;;;;7.17;92.04;101717.47;4988764;28;20068;-77
2021/03/18 10:12:20;;;;;;;14.80;7.63;;;;;;;7.48;90.58;101719.38;4987315;28;20440;-78
2021/03/18 10:14:55;;;;;;;24.95;9.15;;;;;;;7.50;90.17;101726.03;5011106;28;20037;-78
2021/03/18 10:17:30;;;;;;;25.98;9.25;;;;;;;7.44;88.88;101713.06;4991225;28;20522;-78
2021/03/18 10:20:01;;;;;;;20.67;9.20;;;;;;;7.47;88.32;101709.78;4989005;28;20034;-77
2021/03/18 10:22:39;;;;;;;19.27;8.60;;;;;;;7.49;87.93;101705.69;4991528;28;20046;-79
2021/03/18 10:25:09;;;;;;;19.73;9.05;;;;;;;7.49;89.30;101710.28;4989712;28;20494;-78
2021/03/18 10:27:39;;;;;;;20.45;9.18;;;;;;;7.51;89.43;101702.72;4988080;28;20030;-78
2021/03/18 10:30:14;;;;;;;18.85;9.30;;;;;;;7.64;89.49;101701.81;4992821;28;20096;-79
2021/03/18 10:32:41;;;;;;;21.42;9.07;;;;;;;7.75;88.56;101695.06;5005896;28;20037;-77
2021/03/18 10:35:09;;;;;;;24.05;9.07;;;;;;;7.85;88.01;101694.81;4989825;28;20026;-77
2021/03/18 10:37:39;;;;;;;19.30;9.02;;;;;;;7.85;87.47;101692.94;4988806;28;20395;-78
2021/03/18 10:40:14;;;;;;;18.35;8.45;;;;;;;8.04;85.61;101687.28;4988797;28;20030;-78
2021/03/18 10:42:41;;;;;;;22.38;9.40;;;;;;;8.10;85.66;101686.03;4986164;28;20092;-79
2021/03/18 10:45:21;;;;;;;22.80;9.00;;;;;;;8.30;85.39;101680.13;4984188;28;20023;-78
2021/03/18 10:47:47;;;;;;;17.10;7.85;;;;;;;8.27;84.10;101677.25;4982203;28;20054;-77
2021/03/18 10:50:16;;;;;;;13.73;7.18;;;;;;;8.30;82.64;101682.00;4987657;28;20088;-77
2021/03/18 10:52:52;;;;;;;13.45;6.90;;;;;;;8.36;83.08;101672.72;4985496;28;20026;-78
2021/03/18 10:55:22;;;;;;;14.00;6.75;;;;;;;8.40;83.12;101669.06;4988328;28;20058;-77
2021/03/18 10:58:02;;;;;;;14.98;7.07;;;;;;;8.50;82.56;101676.81;4987187;28;20045;-77
2021/03/18 11:00:31;;;;;;;15.80;7.77;;;;;;;8.45;81.92;101679.66;4989491;28;20026;-78
2021/03/18 11:03:04;;;;;;;17.35;8.98;;;;;;;8.48;82.82;101670.97;4985332;28;20073;-77
2021/03/18 11:05:37;;;;;;;17.65;8.93;;;;;;;8.55;82.63;101671.31;4977078;28;20588;-77
2021/03/18 11:08:04;;;;;;;21.33;9.35;;;;;;;8.49;82.11;101682.50;4987708;28;20026;-80
2021/03/18 11:10:45;;;;;;;15.63;8.68;;;;;;;8.58;80.97;101672.56;4967703;28;20029;-79
2021/03/18 11:13:17;;;;;;;15.43;6.57;;;;;;;8.54;80.37;101660.88;4991044;28;20093;-78
2021/03/18 11:15:44;;;;;;;13.48;7.40;;;;;;;8.66;79.83;101664.50;4986983;28;20033;-79
2021/03/18 11:18:10;;;;;;;14.10;7.25;;;;;;;8.53;80.68;101660.09;4982110;28;20030;-78
2021/03/18 11:20:40;;;;;;;15.80;7.93;;;;;;;8.54;81.40;101652.81;4990975;28;20038;-78
2021/03/18 11:23:06;;;;;;;16.30;7.60;;;;;;;8.50;82.33;101639.25;4979914;28;20034;-79
2021/03/18 11:25:33;;;;;;;15.18;6.72;;;;;;;8.79;80.62;101638.59;4988577;28;20046;-77
2021/03/18 11:27:58;;;;;;;12.38;6.47;;;;;;;9.10;78.91;101631.91;4990626;28;20033;-78